sensor_id;sensor_type;location;lat;lon;timestamp;P1;durP1;ratioP1;P2;durP2;ratioP2
76595;SDS011;65485;45.990;18.670;2023-12-14T05:05:23;4.97;;;3.95;;
76595;SDS011;65485;45.990;18.670;2023-12-14T05:08:26;6.50;;;4.35;;
76595;SDS011;65485;45.990;18.670;2023-12-14T05:11:29;6.13;;;4.00;;
76595;SDS011;65485;45.990;18.670;2023-12-14T05:14:31;4.35;;;3.95;;
76595;SDS011;65485;45.990;18.670;2023-12-14T05:17:34;6.75;;;4.43;;
76595;SDS011;65485;45.990;18.670;2023-12-14T05:20:39;5.65;;;4.05;;
76595;SDS011;65485;45.990;18.670;2023-12-14T05:23:41;6.28;;;4.22;;
76595;SDS011;65485;45.990;18.670;2023-12-14T05:26:44;4.57;;;3.77;;
76595;SDS011;65485;45.990;18.670;2023-12-14T05:29:46;5.60;;;3.90;;
76595;SDS011;65485;45.990;18.670;2023-12-14T05:32:49;4.32;;;3.85;;
76595;SDS011;65485;45.990;18.670;2023-12-14T05:35:52;6.88;;;3.92;;
76595;SDS011;65485;45.990;18.670;2023-12-14T05:38:54;5.45;;;4.13;;
76595;SDS011;65485;45.990;18.670;2023-12-14T05:41:57;4.90;;;4.07;;
76595;SDS011;65485;45.990;18.670;2023-12-14T05:44:59;3.80;;;3.50;;
76595;SDS011;65485;45.990;18.670;2023-12-14T05:48:02;5.15;;;3.80;;
76595;SDS011;65485;45.990;18.670;2023-12-14T05:51:07;4.75;;;3.45;;
76595;SDS011;65485;45.990;18.670;2023-12-14T05:54:10;6.00;;;3.97;;
76595;SDS011;65485;45.990;18.670;2023-12-14T05:57:12;4.33;;;3.60;;
76595;SDS011;65485;45.990;18.670;2023-12-14T06:00:15;6.75;;;4.30;;
76595;SDS011;65485;45.990;18.670;2023-12-14T06:03:19;7.93;;;5.25;;
76595;SDS011;65485;45.990;18.670;2023-12-14T06:06:22;8.60;;;5.15;;
76595;SDS011;65485;45.990;18.670;2023-12-14T06:09:25;8.57;;;5.43;;
76595;SDS011;65485;45.990;18.670;2023-12-14T06:12:35;9.17;;;5.67;;
76595;SDS011;65485;45.990;18.670;2023-12-14T06:15:38;20.50;;;9.63;;
76595;SDS011;65485;45.990;18.670;2023-12-14T06:18:41;33.53;;;13.10;;
76595;SDS011;65485;45.990;18.670;2023-12-14T06:21:45;25.80;;;12.10;;
76595;SDS011;65485;45.990;18.670;2023-12-14T06:24:48;17.25;;;9.15;;
76595;SDS011;65485;45.990;18.670;2023-12-14T06:27:50;9.63;;;6.53;;
76595;SDS011;65485;45.990;18.670;2023-12-14T06:30:53;6.53;;;4.80;;
76595;SDS011;65485;45.990;18.670;2023-12-14T06:33:56;6.40;;;4.70;;
76595;SDS011;65485;45.990;18.670;2023-12-14T06:37:02;6.25;;;5.00;;
76595;SDS011;65485;45.990;18.670;2023-12-14T06:40:05;9.38;;;5.50;;
76595;SDS011;65485;45.990;18.670;2023-12-14T06:43:08;7.73;;;5.43;;
76595;SDS011;65485;45.990;18.670;2023-12-14T06:46:11;8.30;;;5.55;;
76595;SDS011;65485;45.990;18.670;2023-12-14T06:49:13;7.72;;;4.97;;
76595;SDS011;65485;45.990;18.670;2023-12-14T06:52:16;9.25;;;4.88;;
76595;SDS011;65485;45.990;18.670;2023-12-14T06:55:18;9.05;;;5.75;;
76595;SDS011;65485;45.990;18.670;2023-12-14T06:58:21;8.13;;;4.90;;
76595;SDS011;65485;45.990;18.670;2023-12-14T07:01:28;10.88;;;6.05;;
76595;SDS011;65485;45.990;18.670;2023-12-14T07:04:52;7.50;;;4.78;;
76595;SDS011;65485;45.990;18.670;2023-12-14T07:07:56;9.85;;;4.93;;
76595;SDS011;65485;45.990;18.670;2023-12-14T07:11:12;7.18;;;5.10;;
76595;SDS011;65485;45.990;18.670;2023-12-14T07:14:15;8.73;;;5.20;;
76595;SDS011;65485;45.990;18.670;2023-12-14T07:17:18;8.60;;;5.05;;
76595;SDS011;65485;45.990;18.670;2023-12-14T07:20:21;5.50;;;4.88;;
76595;SDS011;65485;45.990;18.670;2023-12-14T07:23:24;9.68;;;6.57;;
76595;SDS011;65485;45.990;18.670;2023-12-14T07:26:26;7.43;;;5.18;;
76595;SDS011;65485;45.990;18.670;2023-12-14T07:29:29;8.93;;;4.83;;
76595;SDS011;65485;45.990;18.670;2023-12-14T07:32:33;7.88;;;4.75;;
76595;SDS011;65485;45.990;18.670;2023-12-14T07:35:36;7.30;;;5.00;;
76595;SDS011;65485;45.990;18.670;2023-12-14T07:38:47;8.07;;;5.32;;
76595;SDS011;65485;45.990;18.670;2023-12-14T07:42:16;7.97;;;5.65;;
76595;SDS011;65485;45.990;18.670;2023-12-14T07:45:22;8.10;;;5.17;;
76595;SDS011;65485;45.990;18.670;2023-12-14T07:48:24;8.38;;;5.47;;
76595;SDS011;65485;45.990;18.670;2023-12-14T07:51:28;7.25;;;5.50;;
76595;SDS011;65485;45.990;18.670;2023-12-14T07:54:36;9.65;;;6.10;;
76595;SDS011;65485;45.990;18.670;2023-12-14T07:57:39;10.88;;;7.10;;
76595;SDS011;65485;45.990;18.670;2023-12-14T08:00:42;9.73;;;6.53;;
76595;SDS011;65485;45.990;18.670;2023-12-14T08:03:45;10.60;;;6.85;;
76595;SDS011;65485;45.990;18.670;2023-12-14T08:06:48;9.43;;;6.38;;
76595;SDS011;65485;45.990;18.670;2023-12-14T08:09:51;11.88;;;6.82;;
76595;SDS011;65485;45.990;18.670;2023-12-14T08:12:54;11.00;;;6.72;;
76595;SDS011;65485;45.990;18.670;2023-12-14T08:15:57;10.80;;;6.70;;
76595;SDS011;65485;45.990;18.670;2023-12-14T08:19:01;12.52;;;7.63;;
76595;SDS011;65485;45.990;18.670;2023-12-14T08:22:04;13.68;;;7.65;;
76595;SDS011;65485;45.990;18.670;2023-12-14T08:25:06;13.32;;;8.10;;
76595;SDS011;65485;45.990;18.670;2023-12-14T08:28:09;14.00;;;9.02;;
76595;SDS011;65485;45.990;18.670;2023-12-14T08:31:12;11.40;;;7.70;;
76595;SDS011;65485;45.990;18.670;2023-12-14T08:34:19;9.40;;;7.15;;
76595;SDS011;65485;45.990;18.670;2023-12-14T08:37:22;12.73;;;7.10;;
76595;SDS011;65485;45.990;18.670;2023-12-14T08:40:25;14.70;;;7.70;;
76595;SDS011;65485;45.990;18.670;2023-12-14T08:43:56;12.32;;;8.40;;
76595;SDS011;65485;45.990;18.670;2023-12-14T08:46:59;13.40;;;8.90;;
76595;SDS011;65485;45.990;18.670;2023-12-14T08:50:03;13.23;;;8.52;;
76595;SDS011;65485;45.990;18.670;2023-12-14T08:53:06;15.82;;;9.40;;
76595;SDS011;65485;45.990;18.670;2023-12-14T08:56:10;13.35;;;9.20;;
76595;SDS011;65485;45.990;18.670;2023-12-14T08:59:13;15.90;;;9.88;;
76595;SDS011;65485;45.990;18.670;2023-12-14T09:02:16;15.23;;;9.53;;
76595;SDS011;65485;45.990;18.670;2023-12-14T09:05:18;15.68;;;9.90;;
76595;SDS011;65485;45.990;18.670;2023-12-14T09:08:23;14.98;;;10.00;;
76595;SDS011;65485;45.990;18.670;2023-12-14T09:11:25;16.15;;;10.18;;
76595;SDS011;65485;45.990;18.670;2023-12-14T09:14:28;16.02;;;10.10;;
76595;SDS011;65485;45.990;18.670;2023-12-14T09:17:31;17.77;;;10.27;;
76595;SDS011;65485;45.990;18.670;2023-12-14T09:20:39;16.60;;;10.20;;
76595;SDS011;65485;45.990;18.670;2023-12-14T09:23:43;14.38;;;9.60;;
76595;SDS011;65485;45.990;18.670;2023-12-14T09:26:45;12.57;;;8.88;;
76595;SDS011;65485;45.990;18.670;2023-12-14T09:29:49;12.52;;;8.52;;
76595;SDS011;65485;45.990;18.670;2023-12-14T09:32:52;10.33;;;7.83;;
76595;SDS011;65485;45.990;18.670;2023-12-14T09:36:04;11.48;;;8.43;;
76595;SDS011;65485;45.990;18.670;2023-12-14T09:39:07;12.00;;;7.95;;
76595;SDS011;65485;45.990;18.670;2023-12-14T09:42:13;10.75;;;7.70;;
76595;SDS011;65485;45.990;18.670;2023-12-14T09:45:31;10.10;;;6.55;;
76595;SDS011;65485;45.990;18.670;2023-12-14T09:49:12;6.93;;;5.10;;
76595;SDS011;65485;45.990;18.670;2023-12-14T09:52:16;8.82;;;5.75;;
76595;SDS011;65485;45.990;18.670;2023-12-14T09:55:20;8.07;;;5.18;;
76595;SDS011;65485;45.990;18.670;2023-12-14T09:58:31;12.80;;;5.80;;
76595;SDS011;65485;45.990;18.670;2023-12-14T10:01:35;7.80;;;5.88;;
76595;SDS011;65485;45.990;18.670;2023-12-14T10:04:38;9.00;;;6.33;;
76595;SDS011;65485;45.990;18.670;2023-12-14T10:07:42;8.52;;;5.43;;
76595;SDS011;65485;45.990;18.670;2023-12-14T10:10:46;7.82;;;5.72;;
76595;SDS011;65485;45.990;18.670;2023-12-14T10:13:55;7.35;;;5.40;;
76595;SDS011;65485;45.990;18.670;2023-12-14T10:16:58;8.57;;;6.30;;
76595;SDS011;65485;45.990;18.670;2023-12-14T10:20:05;10.63;;;5.87;;
76595;SDS011;65485;45.990;18.670;2023-12-14T10:23:11;9.65;;;6.00;;
76595;SDS011;65485;45.990;18.670;2023-12-14T10:26:18;6.95;;;5.70;;
76595;SDS011;65485;45.990;18.670;2023-12-14T10:29:23;9.20;;;6.50;;
76595;SDS011;65485;45.990;18.670;2023-12-14T10:32:27;8.75;;;6.50;;
76595;SDS011;65485;45.990;18.670;2023-12-14T10:35:33;8.70;;;6.10;;
76595;SDS011;65485;45.990;18.670;2023-12-14T10:38:41;8.52;;;6.80;;
76595;SDS011;65485;45.990;18.670;2023-12-14T10:42:22;6.88;;;6.13;;
76595;SDS011;65485;45.990;18.670;2023-12-14T10:45:32;8.18;;;6.85;;
76595;SDS011;65485;45.990;18.670;2023-12-14T10:48:49;8.48;;;6.72;;
76595;SDS011;65485;45.990;18.670;2023-12-14T10:52:01;9.30;;;5.80;;
76595;SDS011;65485;45.990;18.670;2023-12-14T10:55:07;7.28;;;5.70;;
76595;SDS011;65485;45.990;18.670;2023-12-14T10:58:13;9.57;;;6.57;;
76595;SDS011;65485;45.990;18.670;2023-12-14T11:01:17;9.20;;;6.32;;
76595;SDS011;65485;45.990;18.670;2023-12-14T11:04:21;11.48;;;6.82;;
76595;SDS011;65485;45.990;18.670;2023-12-14T11:10:52;8.05;;;6.22;;
76595;SDS011;65485;45.990;18.670;2023-12-14T11:14:01;8.15;;;6.53;;
76595;SDS011;65485;45.990;18.670;2023-12-14T11:17:06;9.60;;;6.68;;
76595;SDS011;65485;45.990;18.670;2023-12-14T11:20:23;12.15;;;7.25;;
76595;SDS011;65485;45.990;18.670;2023-12-14T11:23:29;10.17;;;5.67;;
76595;SDS011;65485;45.990;18.670;2023-12-14T11:26:39;9.68;;;6.70;;
76595;SDS011;65485;45.990;18.670;2023-12-14T11:29:43;6.72;;;5.18;;
76595;SDS011;65485;45.990;18.670;2023-12-14T11:32:50;6.28;;;5.63;;
76595;SDS011;65485;45.990;18.670;2023-12-14T11:36:37;7.78;;;5.93;;
76595;SDS011;65485;45.990;18.670;2023-12-14T11:39:59;7.70;;;5.57;;
76595;SDS011;65485;45.990;18.670;2023-12-14T11:43:03;7.65;;;5.38;;
76595;SDS011;65485;45.990;18.670;2023-12-14T11:46:14;5.95;;;5.20;;
76595;SDS011;65485;45.990;18.670;2023-12-14T11:49:18;7.90;;;6.07;;
76595;SDS011;65485;45.990;18.670;2023-12-14T11:52:21;11.32;;;6.55;;
76595;SDS011;65485;45.990;18.670;2023-12-14T11:55:24;8.10;;;5.73;;
76595;SDS011;65485;45.990;18.670;2023-12-14T11:58:27;9.20;;;5.70;;
76595;SDS011;65485;45.990;18.670;2023-12-14T12:01:30;5.85;;;4.90;;
76595;SDS011;65485;45.990;18.670;2023-12-14T12:04:35;8.55;;;5.38;;
76595;SDS011;65485;45.990;18.670;2023-12-14T12:07:39;8.80;;;5.90;;
76595;SDS011;65485;45.990;18.670;2023-12-14T12:10:47;7.93;;;4.87;;
76595;SDS011;65485;45.990;18.670;2023-12-14T12:13:51;6.65;;;5.00;;
76595;SDS011;65485;45.990;18.670;2023-12-14T12:16:55;11.35;;;6.40;;
76595;SDS011;65485;45.990;18.670;2023-12-14T12:19:58;5.93;;;4.75;;
76595;SDS011;65485;45.990;18.670;2023-12-14T12:23:05;11.00;;;5.40;;
76595;SDS011;65485;45.990;18.670;2023-12-14T12:26:33;7.37;;;5.30;;
76595;SDS011;65485;45.990;18.670;2023-12-14T12:29:40;5.80;;;4.55;;
76595;SDS011;65485;45.990;18.670;2023-12-14T12:32:43;6.13;;;4.88;;
76595;SDS011;65485;45.990;18.670;2023-12-14T12:35:46;6.88;;;4.55;;
76595;SDS011;65485;45.990;18.670;2023-12-14T12:38:49;9.75;;;5.30;;
76595;SDS011;65485;45.990;18.670;2023-12-14T12:41:53;7.60;;;5.47;;
76595;SDS011;65485;45.990;18.670;2023-12-14T12:44:56;6.55;;;4.60;;
76595;SDS011;65485;45.990;18.670;2023-12-14T12:48:03;7.53;;;5.80;;
76595;SDS011;65485;45.990;18.670;2023-12-14T12:51:09;7.18;;;5.35;;
76595;SDS011;65485;45.990;18.670;2023-12-14T12:54:13;7.13;;;5.03;;
76595;SDS011;65485;45.990;18.670;2023-12-14T12:57:18;5.70;;;4.40;;
76595;SDS011;65485;45.990;18.670;2023-12-14T13:00:21;7.57;;;5.43;;
76595;SDS011;65485;45.990;18.670;2023-12-14T13:03:25;7.90;;;4.82;;
76595;SDS011;65485;45.990;18.670;2023-12-14T13:06:28;7.38;;;4.97;;
76595;SDS011;65485;45.990;18.670;2023-12-14T13:09:32;7.22;;;4.78;;
76595;SDS011;65485;45.990;18.670;2023-12-14T13:12:36;9.63;;;5.10;;
76595;SDS011;65485;45.990;18.670;2023-12-14T13:15:38;6.55;;;4.57;;
76595;SDS011;65485;45.990;18.670;2023-12-14T13:18:41;7.93;;;4.25;;
76595;SDS011;65485;45.990;18.670;2023-12-14T13:21:44;5.70;;;4.40;;
76595;SDS011;65485;45.990;18.670;2023-12-14T13:24:48;6.28;;;4.18;;
76595;SDS011;65485;45.990;18.670;2023-12-14T13:27:52;7.47;;;4.50;;
76595;SDS011;65485;45.990;18.670;2023-12-14T13:31:06;6.03;;;4.47;;
76595;SDS011;65485;45.990;18.670;2023-12-14T13:34:10;7.93;;;5.13;;
76595;SDS011;65485;45.990;18.670;2023-12-14T13:37:12;10.68;;;5.15;;
76595;SDS011;65485;45.990;18.670;2023-12-14T13:40:18;11.40;;;5.60;;
76595;SDS011;65485;45.990;18.670;2023-12-14T13:43:20;8.20;;;4.23;;
76595;SDS011;65485;45.990;18.670;2023-12-14T13:46:24;8.07;;;4.88;;
76595;SDS011;65485;45.990;18.670;2023-12-14T13:49:26;6.60;;;5.00;;
76595;SDS011;65485;45.990;18.670;2023-12-14T13:52:29;7.45;;;5.00;;
76595;SDS011;65485;45.990;18.670;2023-12-14T13:55:33;7.68;;;5.35;;
76595;SDS011;65485;45.990;18.670;2023-12-14T13:58:37;6.90;;;4.20;;
76595;SDS011;65485;45.990;18.670;2023-12-14T14:01:41;7.38;;;4.82;;
76595;SDS011;65485;45.990;18.670;2023-12-14T14:04:44;7.00;;;3.85;;
76595;SDS011;65485;45.990;18.670;2023-12-14T14:07:50;7.20;;;5.10;;
76595;SDS011;65485;45.990;18.670;2023-12-14T14:10:54;7.95;;;5.35;;
76595;SDS011;65485;45.990;18.670;2023-12-14T14:13:57;7.40;;;5.03;;
76595;SDS011;65485;45.990;18.670;2023-12-14T14:17:00;8.13;;;4.80;;
76595;SDS011;65485;45.990;18.670;2023-12-14T14:20:03;8.43;;;4.40;;
76595;SDS011;65485;45.990;18.670;2023-12-14T14:23:07;6.85;;;4.95;;
76595;SDS011;65485;45.990;18.670;2023-12-14T14:26:10;7.97;;;5.65;;
76595;SDS011;65485;45.990;18.670;2023-12-14T14:29:13;9.20;;;5.03;;
76595;SDS011;65485;45.990;18.670;2023-12-14T14:32:16;7.60;;;5.57;;
76595;SDS011;65485;45.990;18.670;2023-12-14T14:35:18;7.45;;;5.55;;
76595;SDS011;65485;45.990;18.670;2023-12-14T14:38:21;9.35;;;4.70;;
76595;SDS011;65485;45.990;18.670;2023-12-14T14:41:24;7.70;;;5.50;;
76595;SDS011;65485;45.990;18.670;2023-12-14T14:44:27;7.73;;;5.10;;
76595;SDS011;65485;45.990;18.670;2023-12-14T14:47:30;8.32;;;4.97;;
76595;SDS011;65485;45.990;18.670;2023-12-14T14:50:32;8.25;;;5.28;;
76595;SDS011;65485;45.990;18.670;2023-12-14T14:53:35;8.90;;;5.30;;
76595;SDS011;65485;45.990;18.670;2023-12-14T14:56:40;7.45;;;5.15;;
76595;SDS011;65485;45.990;18.670;2023-12-14T14:59:43;9.67;;;6.07;;
76595;SDS011;65485;45.990;18.670;2023-12-14T15:02:45;9.93;;;6.32;;
76595;SDS011;65485;45.990;18.670;2023-12-14T15:05:48;8.15;;;5.63;;
76595;SDS011;65485;45.990;18.670;2023-12-14T15:08:51;11.52;;;6.15;;
76595;SDS011;65485;45.990;18.670;2023-12-14T15:11:53;8.07;;;5.55;;
76595;SDS011;65485;45.990;18.670;2023-12-14T15:14:56;9.77;;;5.30;;
76595;SDS011;65485;45.990;18.670;2023-12-14T15:17:59;10.27;;;5.10;;
76595;SDS011;65485;45.990;18.670;2023-12-14T15:21:01;9.23;;;5.25;;
76595;SDS011;65485;45.990;18.670;2023-12-14T15:24:08;10.05;;;5.68;;
76595;SDS011;65485;45.990;18.670;2023-12-14T15:27:10;8.48;;;5.47;;
76595;SDS011;65485;45.990;18.670;2023-12-14T15:30:13;11.00;;;6.23;;
76595;SDS011;65485;45.990;18.670;2023-12-14T15:33:17;9.73;;;6.05;;
76595;SDS011;65485;45.990;18.670;2023-12-14T15:36:19;14.35;;;7.65;;
76595;SDS011;65485;45.990;18.670;2023-12-14T15:39:22;12.25;;;7.30;;
76595;SDS011;65485;45.990;18.670;2023-12-14T15:42:25;10.60;;;6.82;;
76595;SDS011;65485;45.990;18.670;2023-12-14T15:45:27;10.90;;;7.20;;
76595;SDS011;65485;45.990;18.670;2023-12-14T15:48:35;13.63;;;8.18;;
76595;SDS011;65485;45.990;18.670;2023-12-14T15:51:39;12.02;;;7.53;;
76595;SDS011;65485;45.990;18.670;2023-12-14T15:54:42;14.43;;;9.18;;
76595;SDS011;65485;45.990;18.670;2023-12-14T15:57:45;14.23;;;9.40;;
76595;SDS011;65485;45.990;18.670;2023-12-14T16:00:48;21.17;;;12.20;;
76595;SDS011;65485;45.990;18.670;2023-12-14T16:03:50;22.35;;;13.70;;
76595;SDS011;65485;45.990;18.670;2023-12-14T16:06:53;19.77;;;12.77;;
76595;SDS011;65485;45.990;18.670;2023-12-14T16:09:55;19.55;;;11.43;;
76595;SDS011;65485;45.990;18.670;2023-12-14T16:12:58;12.68;;;9.18;;
76595;SDS011;65485;45.990;18.670;2023-12-14T16:16:00;10.00;;;7.03;;
76595;SDS011;65485;45.990;18.670;2023-12-14T16:19:03;17.92;;;10.55;;
76595;SDS011;65485;45.990;18.670;2023-12-14T16:22:06;17.98;;;11.55;;
76595;SDS011;65485;45.990;18.670;2023-12-14T16:25:09;14.52;;;11.05;;
76595;SDS011;65485;45.990;18.670;2023-12-14T16:28:12;15.70;;;9.82;;
76595;SDS011;65485;45.990;18.670;2023-12-14T16:31:14;19.47;;;11.20;;
76595;SDS011;65485;45.990;18.670;2023-12-14T16:34:17;20.10;;;11.77;;
76595;SDS011;65485;45.990;18.670;2023-12-14T16:37:20;17.77;;;11.60;;
76595;SDS011;65485;45.990;18.670;2023-12-14T16:40:22;13.70;;;9.55;;
76595;SDS011;65485;45.990;18.670;2023-12-14T16:43:25;13.48;;;8.90;;
76595;SDS011;65485;45.990;18.670;2023-12-14T16:46:29;14.57;;;8.57;;
76595;SDS011;65485;45.990;18.670;2023-12-14T16:49:33;13.05;;;8.55;;
76595;SDS011;65485;45.990;18.670;2023-12-14T16:52:37;16.13;;;8.75;;
76595;SDS011;65485;45.990;18.670;2023-12-14T16:55:40;16.08;;;9.23;;
76595;SDS011;65485;45.990;18.670;2023-12-14T16:58:42;14.80;;;10.43;;
76595;SDS011;65485;45.990;18.670;2023-12-14T17:01:45;14.37;;;9.10;;
76595;SDS011;65485;45.990;18.670;2023-12-14T17:04:48;16.35;;;10.55;;
76595;SDS011;65485;45.990;18.670;2023-12-14T17:07:51;11.55;;;9.32;;
76595;SDS011;65485;45.990;18.670;2023-12-14T17:10:54;15.85;;;9.40;;
76595;SDS011;65485;45.990;18.670;2023-12-14T17:13:58;12.98;;;8.10;;
76595;SDS011;65485;45.990;18.670;2023-12-14T17:17:00;15.50;;;7.70;;
76595;SDS011;65485;45.990;18.670;2023-12-14T17:20:06;11.77;;;8.23;;
76595;SDS011;65485;45.990;18.670;2023-12-14T17:23:09;10.05;;;7.32;;
76595;SDS011;65485;45.990;18.670;2023-12-14T17:26:12;11.32;;;6.88;;
76595;SDS011;65485;45.990;18.670;2023-12-14T17:29:18;9.38;;;6.72;;
76595;SDS011;65485;45.990;18.670;2023-12-14T17:32:21;8.57;;;5.63;;
76595;SDS011;65485;45.990;18.670;2023-12-14T17:35:23;8.00;;;6.30;;
76595;SDS011;65485;45.990;18.670;2023-12-14T17:38:26;8.68;;;6.18;;
76595;SDS011;65485;45.990;18.670;2023-12-14T17:41:29;7.57;;;5.70;;
76595;SDS011;65485;45.990;18.670;2023-12-14T17:44:31;8.30;;;5.57;;
76595;SDS011;65485;45.990;18.670;2023-12-14T17:47:35;9.53;;;5.27;;
76595;SDS011;65485;45.990;18.670;2023-12-14T17:50:38;7.72;;;4.40;;
76595;SDS011;65485;45.990;18.670;2023-12-14T17:53:40;7.80;;;5.20;;
76595;SDS011;65485;45.990;18.670;2023-12-14T17:56:45;6.75;;;4.50;;
76595;SDS011;65485;45.990;18.670;2023-12-14T17:59:48;6.30;;;4.70;;
76595;SDS011;65485;45.990;18.670;2023-12-14T18:02:51;6.40;;;4.30;;
76595;SDS011;65485;45.990;18.670;2023-12-14T18:05:53;8.13;;;5.07;;
76595;SDS011;65485;45.990;18.670;2023-12-14T18:08:56;8.23;;;6.03;;
76595;SDS011;65485;45.990;18.670;2023-12-14T18:12:00;8.05;;;5.25;;
76595;SDS011;65485;45.990;18.670;2023-12-14T18:15:03;6.47;;;5.13;;
76595;SDS011;65485;45.990;18.670;2023-12-14T18:18:06;8.97;;;5.10;;
76595;SDS011;65485;45.990;18.670;2023-12-14T18:21:08;9.95;;;5.88;;
76595;SDS011;65485;45.990;18.670;2023-12-14T18:24:11;7.18;;;5.13;;
